Time;durP1;ratioP1;P1;durP2;ratioP2;P2;SDS_P1;SDS_P2;PMS_P1;PMS_P2;Temp;Humidity;BMP_temperature;BMP_pressure;BME280_temperature;BME280_humidity;BME280_pressure;Samples;Min_cycle;Max_cycle;Signal;HPM_P1;HPM_P2
2022/05/16 00:02:56;;;;;;;8.67;4.30;;;;;;;18.96;47.07;98028.59;8459782;28;20228;-76
2022/05/16 00:07:00;;;;;;;7.73;4.07;;;;;;;18.89;47.58;98025.63;8480842;28;20221;-74
2022/05/16 00:11:03;;;;;;;10.17;4.40;;;;;;;18.89;47.16;98023.00;8480953;28;20225;-75
2022/05/16 00:15:08;;;;;;;6.97;3.93;;;;;;;18.76;47.76;98022.25;8480874;28;20233;-75
2022/05/16 00:19:11;;;;;;;10.97;4.50;;;;;;;18.69;47.78;98023.69;8480849;28;20525;-75
2022/05/16 00:23:15;;;;;;;10.80;4.50;;;;;;;18.66;47.75;98013.44;8481570;28;20232;-75
2022/05/16 00:27:18;;;;;;;9.63;4.20;;;;;;;18.65;47.98;98019.63;8487684;28;20299;-75
2022/05/16 00:31:21;;;;;;;10.90;4.33;;;;;;;18.63;47.41;98018.91;8487450;28;20233;-75
2022/05/16 00:35:25;;;;;;;6.20;4.10;;;;;;;18.49;47.90;98007.69;8487067;28;20354;-74
2022/05/16 00:39:29;;;;;;;9.37;4.60;;;;;;;18.52;48.04;98009.22;8487209;28;20229;-74
2022/05/16 00:43:48;;;;;;;5.70;4.10;;;;;;;18.42;48.04;98006.47;8486899;28;20229;-74
2022/05/16 00:47:51;;;;;;;8.63;4.20;;;;;;;18.31;48.18;98004.66;8487105;28;20539;-75
2022/05/16 00:51:57;;;;;;;9.43;4.60;;;;;;;18.24;48.30;98002.59;8486808;28;20233;-75
2022/05/16 00:56:02;;;;;;;7.37;4.50;;;;;;;18.16;48.61;98001.41;8486913;28;20230;-75
2022/05/16 01:00:08;;;;;;;8.07;4.60;;;;;;;18.26;48.02;98001.56;8486448;28;20238;-76
2022/05/16 01:08:33;;;;;;;7.77;4.33;;;;;;;18.19;48.24;98000.34;8485647;28;20240;-75
2022/05/16 01:12:39;;;;;;;8.17;4.57;;;;;;;18.06;48.62;97995.19;8486156;28;20238;-75
2022/05/16 01:16:42;;;;;;;9.13;4.77;;;;;;;17.98;48.73;97995.75;8485740;28;20539;-75
2022/05/16 01:20:56;;;;;;;7.37;4.70;;;;;;;17.98;48.49;98005.41;8485849;28;20233;-75
2022/05/16 01:25:05;;;;;;;7.83;4.60;;;;;;;17.95;48.99;97992.50;8485727;28;20225;-76
2022/05/16 01:29:09;;;;;;;5.97;4.30;;;;;;;18.02;48.63;97990.28;8485608;28;20428;-75
2022/05/16 01:33:12;;;;;;;8.87;4.60;;;;;;;17.84;49.15;97979.34;8485397;28;20250;-76
2022/05/16 01:37:15;;;;;;;7.53;4.83;;;;;;;17.92;48.91;97982.28;8484666;28;20229;-75
2022/05/16 01:41:20;;;;;;;8.87;4.40;;;;;;;17.94;48.61;97983.81;8485301;28;20239;-75
2022/05/16 01:45:23;;;;;;;6.33;4.17;;;;;;;17.90;48.79;97997.28;8459167;28;20222;-74
2022/05/16 01:49:26;;;;;;;10.80;4.87;;;;;;;17.84;48.75;97989.81;8451353;28;20529;-75
2022/05/16 01:53:29;;;;;;;5.97;4.50;;;;;;;17.76;48.84;97993.84;8450945;28;20230;-74
2022/05/16 01:57:34;;;;;;;11.03;4.90;;;;;;;17.76;48.91;97983.38;8450918;28;20229;-75
2022/05/16 02:01:37;;;;;;;6.43;4.57;;;;;;;17.56;49.33;97989.22;8450612;28;20233;-75
2022/05/16 02:05:42;;;;;;;7.33;4.13;;;;;;;17.69;49.18;97981.31;8450597;28;20339;-75
2022/05/16 02:09:45;;;;;;;6.63;4.33;;;;;;;17.65;49.37;97990.31;8450658;28;20230;-75
2022/05/16 02:13:49;;;;;;;7.97;4.70;;;;;;;17.67;49.53;97981.44;8450292;28;20234;-75
2022/05/16 02:17:52;;;;;;;8.03;4.73;;;;;;;17.57;49.37;97970.81;8450481;28;20409;-76
2022/05/16 02:26:24;;;;;;;9.23;4.43;;;;;;;17.52;49.94;97966.84;8430803;28;20415;-75
2022/05/16 02:30:28;;;;;;;11.50;4.80;;;;;;;17.64;49.32;97971.16;8483410;28;20233;-74
2022/05/16 02:34:31;;;;;;;8.23;4.93;;;;;;;17.72;49.39;97981.09;8483469;28;20229;-75
2022/05/16 02:38:35;;;;;;;6.13;4.30;;;;;;;17.67;49.11;97977.97;8483612;28;20229;-74
2022/05/16 02:42:38;;;;;;;7.23;4.43;;;;;;;17.55;49.40;97975.31;8483357;28;20291;-74
2022/05/16 02:46:43;;;;;;;7.43;4.63;;;;;;;17.49;49.63;97973.13;8482082;28;20229;-76
2022/05/16 02:50:46;;;;;;;8.70;4.60;;;;;;;17.54;49.77;97973.63;8482707;28;20229;-75
2022/05/16 02:54:51;;;;;;;7.97;4.57;;;;;;;17.49;49.54;97975.75;8482956;28;20226;-75
2022/05/16 02:58:53;;;;;;;9.77;4.73;;;;;;;17.39;49.59;97962.47;8482710;28;20221;-75
2022/05/16 03:02:58;;;;;;;6.43;4.80;;;;;;;17.50;49.81;97947.78;8482488;28;20229;-75
2022/05/16 03:07:01;;;;;;;8.63;5.00;;;;;;;17.51;49.81;97946.84;8482497;28;20580;-75
2022/05/16 03:11:05;;;;;;;7.33;5.10;;;;;;;17.51;49.35;97950.28;8482376;28;20361;-75
2022/05/16 03:15:09;;;;;;;7.70;4.67;;;;;;;17.50;49.64;97942.56;8481981;28;20237;-75
2022/05/16 03:19:14;;;;;;;14.90;4.73;;;;;;;17.53;49.28;97948.38;8482128;28;20239;-75
2022/05/16 03:23:17;;;;;;;8.00;4.77;;;;;;;17.54;48.78;97952.69;8482166;28;20229;-75
2022/05/16 03:27:19;;;;;;;7.97;5.03;;;;;;;17.57;48.79;97949.00;8481969;28;20229;-75
2022/05/16 03:31:22;;;;;;;7.03;4.57;;;;;;;17.43;49.14;97942.16;8481162;28;20229;-74
2022/05/16 03:35:27;;;;;;;9.23;4.77;;;;;;;17.52;48.94;97936.25;8481576;28;20241;-75
2022/05/16 03:43:50;;;;;;;9.53;5.00;;;;;;;17.57;48.62;97913.19;8481376;28;20532;-75
2022/05/16 03:47:53;;;;;;;8.77;5.10;;;;;;;17.50;48.57;97913.75;8481124;28;20233;-75
2022/05/16 03:51:59;;;;;;;12.00;5.10;;;;;;;17.61;48.20;97916.44;8481307;28;20225;-75
2022/05/16 03:56:02;;;;;;;14.43;5.30;;;;;;;17.61;48.03;97931.28;8481308;28;20249;-75
2022/05/16 04:00:09;;;;;;;9.30;4.97;;;;;;;17.63;48.12;97945.09;8479624;28;20229;-75
2022/05/16 04:04:13;;;;;;;10.90;5.10;;;;;;;17.74;47.99;97964.34;8480798;28;20253;-75
2022/05/16 04:08:17;;;;;;;14.97;5.80;;;;;;;17.77;48.34;97979.81;8481129;28;20229;-75
2022/05/16 04:12:20;;;;;;;7.43;5.40;;;;;;;17.71;48.34;97963.72;8480912;28;20585;-75
2022/05/16 04:16:23;;;;;;;9.57;5.20;;;;;;;17.84;47.92;97971.47;8480421;28;20225;-75
2022/05/16 04:20:27;;;;;;;9.13;5.20;;;;;;;17.87;47.72;97969.50;8480693;28;20233;-75
2022/05/16 04:24:31;;;;;;;11.80;4.77;;;;;;;18.02;47.70;97983.25;8480546;28;20229;-74
2022/05/16 04:28:34;;;;;;;10.33;5.10;;;;;;;18.14;47.60;97995.47;8480748;28;20217;-76
2022/05/16 04:32:37;;;;;;;15.07;5.23;;;;;;;18.17;46.69;97995.22;8463508;28;20229;-75
2022/05/16 04:36:46;;;;;;;9.63;4.77;;;;;;;18.01;47.20;97978.97;8480609;28;20286;-76
2022/05/16 04:45:17;;;;;;;9.47;5.03;;;;;;;18.05;47.55;97998.75;8480375;28;20236;-77
2022/05/16 04:49:21;;;;;;;10.43;4.93;;;;;;;18.25;47.39;97999.03;8480297;28;20232;-77
2022/05/16 04:53:24;;;;;;;16.40;5.63;;;;;;;18.40;46.97;97987.41;8479704;28;20543;-77
2022/05/16 04:57:28;;;;;;;9.53;5.20;;;;;;;18.58;46.96;97994.81;8480106;28;20229;-77
2022/05/16 05:01:31;;;;;;;13.63;6.17;;;;;;;18.47;47.31;97990.41;8479765;28;20318;-78
2022/05/16 05:05:35;;;;;;;15.27;6.87;;;;;;;18.63;47.17;97992.69;8480304;28;20225;-77
2022/05/16 05:18:16;;;;;;;12.47;7.47;;;;;;;18.82;47.15;97995.56;8485925;28;20224;-74
2022/05/16 05:22:20;;;;;;;13.63;7.73;;;;;;;18.49;48.15;98005.06;8485845;28;20230;-74
2022/05/16 05:26:22;;;;;;;10.77;7.70;;;;;;;18.60;48.00;98003.41;8485292;28;20225;-74
2022/05/16 05:30:27;;;;;;;14.10;8.13;;;;;;;18.46;48.63;98007.91;8485572;28;20236;-74
2022/05/16 05:34:30;;;;;;;11.23;7.73;;;;;;;18.61;48.40;97990.16;8485337;28;20431;-74
2022/05/16 05:38:33;;;;;;;14.20;8.43;;;;;;;18.63;48.58;97993.50;8485374;28;20229;-76
2022/05/16 05:42:37;;;;;;;15.53;8.93;;;;;;;18.61;48.57;97991.97;8485256;28;20571;-74
2022/05/16 05:46:41;;;;;;;15.47;7.43;;;;;;;18.94;47.70;97993.78;8485082;28;20253;-75
2022/05/16 05:50:44;;;;;;;15.57;8.87;;;;;;;19.02;47.64;97994.03;8484863;28;20516;-74
2022/05/16 05:54:48;;;;;;;12.20;7.60;;;;;;;19.38;47.02;97999.09;8484688;28;20233;-76
2022/05/16 05:58:51;;;;;;;11.50;7.37;;;;;;;19.25;46.99;97994.00;8484438;28;20229;-76
2022/05/16 06:02:56;;;;;;;15.13;8.10;;;;;;;19.62;46.73;97999.75;8484586;28;20282;-76
2022/05/16 06:07:00;;;;;;;12.33;7.60;;;;;;;19.63;46.77;97997.94;8484229;28;20233;-75
2022/05/16 06:11:03;;;;;;;12.27;7.93;;;;;;;19.57;46.89;97995.81;8484335;28;20225;-75
2022/05/16 06:15:08;;;;;;;14.50;7.37;;;;;;;19.73;46.47;97997.13;8484276;28;20233;-75
2022/05/16 06:19:12;;;;;;;21.27;8.33;;;;;;;19.67;46.65;98002.84;8484027;28;20257;-76
2022/05/16 06:23:15;;;;;;;17.07;7.90;;;;;;;19.84;46.62;98016.44;8483894;28;20229;-75
2022/05/16 06:27:18;;;;;;;20.30;8.23;;;;;;;20.24;45.93;98014.00;8483724;28;20225;-75
2022/05/16 06:31:21;;;;;;;12.37;7.83;;;;;;;20.08;46.57;98008.31;8483689;28;20226;-75
2022/05/16 06:35:25;;;;;;;21.57;7.97;;;;;;;19.88;47.25;98016.06;8482882;28;20230;-75
2022/05/16 06:39:28;;;;;;;13.00;7.37;;;;;;;19.93;46.80;98015.66;8483445;28;20526;-75
2022/05/16 06:43:32;;;;;;;16.90;7.30;;;;;;;19.86;46.58;98019.78;8483182;28;20297;-75
2022/05/16 06:47:36;;;;;;;16.10;7.27;;;;;;;20.17;46.43;98012.00;8483172;28;20253;-75
2022/05/16 06:51:40;;;;;;;19.47;7.30;;;;;;;19.95;46.77;98020.81;8482954;28;20424;-75
2022/05/16 06:55:43;;;;;;;12.10;6.97;;;;;;;20.71;45.43;98013.59;8482761;28;20237;-76
2022/05/16 06:59:46;;;;;;;10.70;6.40;;;;;;;20.67;45.75;98020.09;8482758;28;20226;-75
2022/05/16 07:03:49;;;;;;;15.67;6.00;;;;;;;20.81;45.16;98022.41;8482361;28;20495;-76
2022/05/16 07:07:55;;;;;;;13.53;5.60;;;;;;;20.70;45.22;98023.28;8482370;28;20229;-75
2022/05/16 07:11:58;;;;;;;15.93;4.80;;;;;;;21.01;43.76;98018.03;8482276;28;20223;-76
2022/05/16 07:16:01;;;;;;;12.90;4.70;;;;;;;21.54;42.16;98022.25;8482117;28;20226;-76
2022/05/16 07:20:05;;;;;;;13.17;4.50;;;;;;;21.79;42.03;98020.06;8482058;28;20229;-75
2022/05/16 07:24:10;;;;;;;12.17;4.03;;;;;;;21.91;42.11;98020.75;8481852;28;20238;-76
2022/05/16 07:28:15;;;;;;;21.43;4.83;;;;;;;22.24;40.74;98020.34;8481965;28;20247;-76
2022/05/16 07:32:18;;;;;;;11.93;4.53;;;;;;;22.23;41.09;98017.84;8481589;28;20240;-76
2022/05/16 07:36:21;;;;;;;6.63;3.70;;;;;;;22.80;40.34;98009.97;8481163;28;20240;-76
2022/05/16 07:40:28;;;;;;;8.67;4.00;;;;;;;22.59;40.77;98002.25;8447490;28;20229;-75
2022/05/16 07:44:31;;;;;;;8.07;4.03;;;;;;;22.87;40.81;98007.59;8447742;28;20243;-76
2022/05/16 07:48:34;;;;;;;11.83;4.20;;;;;;;22.99;40.22;98012.53;8447785;28;20237;-75
2022/05/16 07:52:37;;;;;;;11.97;4.30;;;;;;;22.86;40.31;98008.56;8453010;28;20429;-74
2022/05/16 07:56:41;;;;;;;10.33;3.80;;;;;;;23.30;39.80;98011.44;8413866;28;20537;-74
2022/05/16 08:00:45;;;;;;;9.60;3.80;;;;;;;22.92;40.00;98013.25;8439346;28;20236;-75
2022/05/16 08:04:48;;;;;;;8.50;3.40;;;;;;;23.03;40.82;98010.47;8447175;28;20234;-75
2022/05/16 08:13:12;;;;;;;8.00;3.50;;;;;;;22.96;40.57;98012.84;8447229;28;20552;-76
2022/05/16 08:17:16;;;;;;;7.20;3.93;;;;;;;23.95;39.06;98019.25;8447191;28;20415;-76
2022/05/16 08:21:19;;;;;;;9.30;3.50;;;;;;;23.69;39.71;98011.22;8447125;28;20236;-76
2022/05/16 08:25:22;;;;;;;9.00;3.93;;;;;;;24.11;38.26;98026.50;8446725;28;20252;-75
2022/05/16 08:29:27;;;;;;;9.17;3.47;;;;;;;23.66;39.12;98025.53;8446828;28;20244;-75
2022/05/16 08:33:31;;;;;;;12.17;3.50;;;;;;;23.96;39.38;98034.13;8446858;28;20238;-77
2022/05/16 08:41:55;;;;;;;5.40;3.00;;;;;;;23.84;38.13;98053.84;8446732;28;20225;-75
2022/05/16 08:46:03;;;;;;;10.13;3.20;;;;;;;23.78;38.16;98049.97;8449056;28;20240;-76
2022/05/16 08:50:10;;;;;;;6.03;3.10;;;;;;;23.96;39.25;98063.22;8453618;28;20240;-71
2022/05/16 08:54:24;;;;;;;9.27;3.20;;;;;;;23.49;39.88;98068.63;8453205;28;20425;-75
2022/05/16 08:58:33;;;;;;;7.37;3.20;;;;;;;23.27;41.21;98068.06;8452478;28;20232;-74
2022/05/16 09:02:40;;;;;;;11.63;4.17;;;;;;;23.17;44.49;98064.59;8452886;28;20234;-75
2022/05/16 09:06:48;;;;;;;7.13;3.67;;;;;;;23.15;46.78;98059.50;8452495;28;20229;-75
2022/05/16 09:11:01;;;;;;;11.20;3.50;;;;;;;23.12;46.79;98069.50;8453099;28;20218;-75
2022/05/16 09:15:14;;;;;;;7.93;3.40;;;;;;;23.16;46.83;98069.06;8452924;28;20661;-75
2022/05/16 09:19:31;;;;;;;7.40;3.20;;;;;;;23.51;45.61;98066.69;8452622;28;20234;-75
2022/05/16 09:23:44;;;;;;;6.80;3.17;;;;;;;23.33;44.66;98072.75;8452067;28;20302;-75
2022/05/16 09:32:14;;;;;;;9.63;3.37;;;;;;;23.36;43.80;98072.47;8452529;28;20433;-75
2022/05/16 09:36:24;;;;;;;5.40;2.93;;;;;;;23.72;42.22;98084.91;8452335;28;20241;-75
2022/05/16 09:40:33;;;;;;;5.90;2.83;;;;;;;23.82;42.56;98080.44;8451557;28;20245;-74
2022/05/16 09:44:48;;;;;;;10.27;3.00;;;;;;;23.92;42.28;98081.22;8451873;28;20241;-74
2022/05/16 09:48:57;;;;;;;7.57;2.67;;;;;;;24.12;41.88;98075.78;8451507;28;20226;-75
2022/05/16 09:53:14;;;;;;;5.37;2.77;;;;;;;24.20;41.85;98071.41;8451433;28;20410;-75
2022/05/16 09:57:19;;;;;;;7.10;3.07;;;;;;;24.21;41.65;98082.81;8450821;28;20429;-75
2022/05/16 10:01:32;;;;;;;7.50;3.00;;;;;;;24.73;41.42;98077.63;8483989;28;20227;-74
2022/05/16 10:05:35;;;;;;;6.77;2.87;;;;;;;24.85;39.83;98080.84;8456306;28;20309;-74
2022/05/16 10:09:42;;;;;;;5.47;2.77;;;;;;;25.28;39.19;98089.72;8450731;28;20518;-75
2022/05/16 10:13:45;;;;;;;5.90;3.00;;;;;;;26.09;38.13;98079.56;8450751;28;20226;-75
2022/05/16 10:17:52;;;;;;;7.53;3.10;;;;;;;25.42;38.68;98092.75;8450652;28;20227;-75
2022/05/16 10:21:57;;;;;;;7.57;2.70;;;;;;;25.40;38.39;98094.75;8450323;28;20234;-75
2022/05/16 10:26:03;;;;;;;9.57;2.90;;;;;;;25.58;37.89;98092.00;8450067;28;20296;-75
2022/05/16 10:30:09;;;;;;;7.53;2.70;;;;;;;25.90;37.21;98092.09;8450189;28;20236;-75
2022/05/16 10:34:15;;;;;;;5.73;2.70;;;;;;;25.58;37.95;98079.56;8450018;28;20235;-75
2022/05/16 10:38:24;;;;;;;5.10;2.60;;;;;;;25.49;38.01;98084.03;8468436;28;20239;-76
2022/05/16 10:42:32;;;;;;;4.57;2.70;;;;;;;25.30;39.05;98076.31;8466718;28;20297;-77
2022/05/16 10:46:37;;;;;;;4.23;2.77;;;;;;;25.14;38.75;98075.22;8482310;28;20236;-76
2022/05/16 10:50:46;;;;;;;5.57;2.53;;;;;;;25.09;38.74;98072.22;8449340;28;20232;-77
2022/05/16 10:54:49;;;;;;;9.73;3.00;;;;;;;24.95;38.42;98070.16;8463742;28;20255;-77
2022/05/16 10:58:58;;;;;;;10.73;3.00;;;;;;;25.26;38.74;98074.97;8483118;28;20229;-76
2022/05/16 11:03:30;;;;;;;5.20;2.70;;;;;;;25.85;37.54;98080.31;8482847;28;20559;-77
2022/05/16 11:07:38;;;;;;;8.93;3.20;;;;;;;25.98;37.66;98078.03;8435999;28;20289;-76
2022/05/16 11:11:46;;;;;;;8.23;3.20;;;;;;;25.84;37.75;98078.66;8448776;28;20229;-77
2022/05/16 11:15:54;;;;;;;6.47;3.07;;;;;;;25.87;38.76;98079.16;8448668;28;20231;-77
2022/05/16 11:20:06;;;;;;;7.03;3.23;;;;;;;26.11;37.85;98069.63;8448512;28;20243;-78
2022/05/16 11:24:16;;;;;;;5.10;2.53;;;;;;;26.32;38.02;98075.25;8445455;28;20248;-77
2022/05/16 11:28:25;;;;;;;7.13;2.90;;;;;;;26.43;37.52;98065.31;8431259;28;20228;-77
2022/05/16 11:32:40;;;;;;;9.20;3.33;;;;;;;26.18;37.91;98059.16;8414261;28;20536;-76
2022/05/16 11:36:49;;;;;;;8.80;3.30;;;;;;;26.27;39.00;98052.84;8414557;28;20401;-76
2022/05/16 11:40:55;;;;;;;6.03;3.00;;;;;;;25.96;38.68;98053.50;8413529;28;20233;-77
2022/05/16 11:45:08;;;;;;;10.03;3.20;;;;;;;26.17;37.75;98053.03;8420108;28;20232;-77
2022/05/16 11:49:18;;;;;;;9.67;3.10;;;;;;;26.53;37.44;98050.03;8447728;28;20230;-76
2022/05/16 11:53:47;;;;;;;7.73;3.60;;;;;;;27.10;36.41;98039.31;8447332;28;20226;-76
2022/05/16 12:02:15;;;;;;;9.07;3.47;;;;;;;27.46;35.33;98025.56;8481461;28;20422;-76
2022/05/16 12:06:33;;;;;;;9.10;3.40;;;;;;;27.03;35.75;98025.03;8480472;28;20344;-77
2022/05/16 12:10:55;;;;;;;17.53;3.30;;;;;;;26.58;36.52;98017.66;8446760;28;20238;-76
2022/05/16 12:15:15;;;;;;;6.53;2.80;;;;;;;26.27;36.91;98023.66;8453392;28;20237;-75
2022/05/16 12:19:27;;;;;;;10.77;3.07;;;;;;;26.16;36.83;98014.22;8466015;28;20328;-76
2022/05/16 12:24:06;;;;;;;8.43;3.03;;;;;;;26.03;36.34;98012.06;8449872;28;20415;-76
2022/05/16 12:28:23;;;;;;;11.23;3.20;;;;;;;26.06;37.37;98013.56;8400337;28;20234;-76
2022/05/16 12:32:55;;;;;;;9.87;3.70;;;;;;;26.46;36.78;98011.88;8429703;28;20291;-75
2022/05/16 12:36:59;;;;;;;7.90;3.37;;;;;;;27.03;35.41;98003.78;8458329;28;20391;-76
2022/05/16 12:41:38;;;;;;;5.70;2.80;;;;;;;26.81;36.10;97991.28;8470574;27;20223;-76
2022/05/16 12:46:05;;;;;;;8.37;3.20;;;;;;;27.78;35.41;98004.25;8458570;28;20243;-76
2022/05/16 12:50:15;;;;;;;8.00;3.27;;;;;;;27.33;35.79;98004.03;8461912;28;20235;-77
2022/05/16 12:54:56;;;;;;;6.20;3.03;;;;;;;27.58;35.72;97988.75;8476286;28;20242;-77
2022/05/16 12:59:10;;;;;;;6.77;3.33;;;;;;;27.20;35.64;97987.78;8450196;28;20246;-77
2022/05/16 13:03:38;;;;;;;11.03;3.37;;;;;;;26.63;37.17;97983.50;8444135;28;20530;-76
2022/05/16 13:07:53;;;;;;;10.47;3.67;;;;;;;26.06;38.20;97974.56;8451621;28;20335;-77
2022/05/16 13:12:00;;;;;;;6.37;3.60;;;;;;;25.71;40.19;97981.81;8473184;28;20289;-77
2022/05/16 13:16:10;;;;;;;9.67;3.67;;;;;;;25.69;41.07;97998.91;8478566;28;20232;-78
2022/05/16 13:20:16;;;;;;;18.67;4.97;;;;;;;24.84;49.47;98023.56;8486237;28;20232;-77
2022/05/16 13:24:21;;;;;;;12.13;5.70;;;;;;;24.15;51.62;98006.69;8486124;28;20232;-77
2022/05/16 13:32:46;;;;;;;12.77;5.30;;;;;;;24.20;57.23;98013.19;8447369;28;20232;-76
2022/05/16 13:36:51;;;;;;;13.67;4.73;;;;;;;23.96;56.19;98021.75;8473419;28;20418;-77
2022/05/16 13:40:58;;;;;;;8.70;4.20;;;;;;;23.48;56.06;98022.88;8468850;27;20336;-77
2022/05/16 13:45:02;;;;;;;10.63;4.90;;;;;;;23.25;55.80;98038.31;8462494;28;20257;-77
2022/05/16 13:49:08;;;;;;;12.50;5.10;;;;;;;23.19;56.55;98044.19;8450603;28;20255;-78
2022/05/16 13:53:15;;;;;;;11.77;4.40;;;;;;;23.23;56.59;98045.56;8451427;28;20238;-78
2022/05/16 13:57:22;;;;;;;9.13;4.37;;;;;;;23.33;55.24;98040.22;8450961;28;20237;-77
2022/05/16 14:01:25;;;;;;;14.40;5.07;;;;;;;23.34;55.84;98031.28;8450690;28;20450;-77
2022/05/16 14:05:33;;;;;;;15.90;5.63;;;;;;;23.28;57.28;98032.72;8450237;28;20243;-78
2022/05/16 14:09:44;;;;;;;20.03;4.90;;;;;;;23.27;56.61;98040.81;8451220;28;20510;-77
2022/05/16 14:13:54;;;;;;;14.53;4.70;;;;;;;23.30;55.03;98051.06;8450985;28;20222;-77
2022/05/16 14:18:01;;;;;;;10.87;4.90;;;;;;;23.27;58.32;98049.56;8450810;28;20226;-77
2022/05/16 14:22:12;;;;;;;25.43;5.07;;;;;;;23.26;55.57;98050.53;8450596;28;20226;-77
2022/05/16 14:26:22;;;;;;;13.93;4.50;;;;;;;23.32;55.58;98049.09;8450153;28;20233;-77
2022/05/16 14:30:27;;;;;;;21.43;5.13;;;;;;;23.32;56.06;98046.47;8483778;28;20226;-77
2022/05/16 14:34:34;;;;;;;15.40;4.60;;;;;;;23.34;56.00;98044.50;8483884;28;20229;-77
2022/05/16 14:38:48;;;;;;;14.63;5.30;;;;;;;23.39;55.17;98052.84;8483613;28;20237;-77
2022/05/16 14:43:06;;;;;;;13.77;5.20;;;;;;;23.38;56.04;98043.22;8483315;28;20225;-77
2022/05/16 14:47:23;;;;;;;19.43;5.03;;;;;;;23.19;59.87;98036.25;8459942;28;20259;-78
2022/05/16 14:51:28;;;;;;;13.23;5.30;;;;;;;23.22;59.40;98023.56;8456759;28;20231;-77
2022/05/16 14:55:36;;;;;;;20.87;5.80;;;;;;;23.39;58.10;98034.34;8449161;28;20237;-77
2022/05/16 14:59:39;;;;;;;20.03;5.57;;;;;;;23.25;59.39;98024.25;8448893;28;20241;-77
2022/05/16 15:08:02;;;;;;;19.00;4.93;;;;;;;23.36;57.09;98032.84;8449169;28;20559;-77
2022/05/16 15:12:09;;;;;;;11.33;4.87;;;;;;;23.43;57.97;98020.66;8449297;28;20522;-77
2022/05/16 15:16:12;;;;;;;13.23;4.23;;;;;;;23.52;57.73;98021.59;8448945;28;20230;-77
2022/05/16 15:20:15;;;;;;;12.77;4.17;;;;;;;23.66;57.05;98022.91;8448930;28;20313;-77
2022/05/16 15:24:22;;;;;;;13.00;4.00;;;;;;;23.73;56.21;98020.50;8448780;28;20228;-76
2022/05/16 15:28:47;;;;;;;17.23;4.63;;;;;;;23.79;56.50;98027.84;8448021;28;20226;-78
2022/05/16 15:32:51;;;;;;;18.00;4.53;;;;;;;23.88;57.18;98019.03;8448360;28;20234;-77
2022/05/16 15:36:54;;;;;;;10.90;4.57;;;;;;;23.94;57.61;98023.69;8447862;28;20231;-77
2022/05/16 15:40:57;;;;;;;13.43;4.70;;;;;;;24.04;56.92;98010.41;8448167;28;20234;-77
2022/05/16 15:45:02;;;;;;;13.17;4.50;;;;;;;24.08;56.57;98009.09;8447607;28;20235;-77
2022/05/16 15:49:05;;;;;;;11.07;4.67;;;;;;;24.06;58.38;98018.19;8447985;28;20241;-77
2022/05/16 15:53:09;;;;;;;14.93;4.33;;;;;;;23.94;57.18;98007.84;8447829;28;20237;-77
2022/05/16 15:57:12;;;;;;;11.70;4.17;;;;;;;23.91;57.14;98000.22;8447227;28;20341;-80
2022/05/16 16:01:17;;;;;;;11.63;4.57;;;;;;;23.90;58.18;98005.66;8447493;28;20231;-79
2022/05/16 16:09:43;;;;;;;11.63;3.50;;;;;;;23.94;57.68;98007.84;8447292;28;20233;-79
2022/05/16 16:13:46;;;;;;;8.87;3.80;;;;;;;23.86;57.97;98007.78;8446968;28;20237;-78
2022/05/16 16:17:50;;;;;;;12.67;4.03;;;;;;;24.04;55.56;98004.28;8446592;28;20234;-78
2022/05/16 16:21:54;;;;;;;8.80;3.63;;;;;;;24.04;56.42;98009.56;8447077;28;20536;-78
2022/05/16 16:25:58;;;;;;;13.10;3.40;;;;;;;24.05;57.41;98020.00;8447177;28;20234;-78
2022/05/16 16:30:01;;;;;;;9.20;2.20;;;;;;;23.83;55.10;98015.16;8447158;28;20238;-78
2022/05/16 16:34:06;;;;;;;11.17;2.80;;;;;;;23.65;53.67;98010.69;8446927;28;20229;-76
2022/05/16 16:38:09;;;;;;;10.43;2.30;;;;;;;23.57;53.87;98003.50;8446811;28;20237;-77
2022/05/16 16:42:12;;;;;;;14.80;2.47;;;;;;;23.59;53.13;98006.00;8446987;28;20226;-79
2022/05/16 16:46:18;;;;;;;15.83;2.57;;;;;;;23.35;52.96;97994.16;8446462;28;20237;-77
2022/05/16 16:50:23;;;;;;;16.03;2.90;;;;;;;23.32;52.70;98001.56;8446666;28;20246;-79
2022/05/16 16:58:48;;;;;;;9.50;2.67;;;;;;;23.10;50.87;97995.69;8446632;28;20238;-77
2022/05/16 17:02:53;;;;;;;5.07;1.30;;;;;;;22.98;50.66;97991.53;8446800;28;20228;-76
2022/05/16 17:06:58;;;;;;;8.17;2.53;;;;;;;23.12;51.80;97996.38;8448404;28;20268;-77
2022/05/16 17:11:01;;;;;;;11.90;2.63;;;;;;;;;;8453140;28;20374;-77
2022/05/16 17:15:05;;;;;;;12.07;2.40;;;;;;;22.94;51.63;98000.72;8452979;28;20230;-77
2022/05/16 17:19:09;;;;;;;9.50;2.57;;;;;;;22.98;51.31;98002.94;8452724;28;20261;-80
2022/05/16 17:23:14;;;;;;;9.00;2.30;;;;;;;23.06;51.68;98023.38;8452717;28;20230;-76
2022/05/16 17:27:17;;;;;;;9.70;2.57;;;;;;;23.00;51.98;98021.28;8451722;28;20232;-76
2022/05/16 17:31:20;;;;;;;10.77;6.97;;;;;;;23.09;52.04;98038.09;8451786;28;20234;-73
2022/05/16 17:35:24;;;;;;;13.20;9.77;;;;;;;23.01;52.61;98038.78;8451583;28;20232;-76
2022/05/16 17:39:28;;;;;;;24.57;15.57;;;;;;;23.07;53.21;98040.06;8451573;28;20305;-78
2022/05/16 17:43:32;;;;;;;24.47;13.67;;;;;;;22.99;52.88;98049.50;8451820;28;20234;-76
2022/05/16 17:47:37;;;;;;;18.27;8.13;;;;;;;22.89;52.57;98050.53;8452316;28;20230;-75
2022/05/16 17:51:43;;;;;;;14.33;7.87;;;;;;;22.80;52.44;98057.47;8451309;28;20253;-75
2022/05/16 17:55:48;;;;;;;11.23;5.70;;;;;;;22.83;51.90;98062.50;8451258;28;20229;-76
2022/05/16 17:59:53;;;;;;;16.43;7.50;;;;;;;22.79;52.21;98059.28;8451008;28;20232;-77
2022/05/16 18:03:56;;;;;;;19.17;5.90;;;;;;;22.71;51.75;98058.34;8450910;28;20301;-77
2022/05/16 18:08:01;;;;;;;13.63;5.73;;;;;;;22.78;51.73;98068.19;8450857;28;20306;-77
2022/05/16 18:16:28;;;;;;;15.00;5.10;;;;;;;22.70;52.31;98061.97;8449941;28;20226;-77
2022/05/16 18:20:31;;;;;;;14.77;5.27;;;;;;;22.62;52.83;98063.50;8449794;28;20237;-81
2022/05/16 18:24:34;;;;;;;9.30;3.00;;;;;;;22.62;52.84;98067.97;8450262;28;20572;-75
2022/05/16 18:28:39;;;;;;;6.83;2.77;;;;;;;22.48;53.05;98074.47;8449980;28;20256;-77
2022/05/16 18:32:43;;;;;;;6.07;2.30;;;;;;;22.37;54.21;98082.53;8449788;28;20306;-77
2022/05/16 18:36:48;;;;;;;9.00;2.73;;;;;;;22.37;53.68;98088.66;8449713;28;20241;-76
2022/05/16 18:40:56;;;;;;;15.90;3.40;;;;;;;22.24;54.39;98093.38;8449624;28;20233;-80
2022/05/16 18:53:46;;;;;;;8.87;2.80;;;;;;;22.06;54.77;98109.84;8482715;28;20229;-75
2022/05/16 18:57:50;;;;;;;6.30;2.50;;;;;;;22.00;55.61;98117.47;8479636;27;20461;-77
2022/05/16 19:02:09;;;;;;;3.80;2.30;;;;;;;21.91;56.14;98128.84;8433626;28;20230;-75
2022/05/16 19:06:13;;;;;;;7.17;2.50;;;;;;;21.89;56.15;98128.16;8430985;28;20237;-77
2022/05/16 19:10:16;;;;;;;7.30;2.30;;;;;;;21.81;56.74;98132.28;8431322;28;20232;-77
2022/05/16 19:14:19;;;;;;;5.33;2.40;;;;;;;21.76;56.78;98138.94;8433930;28;20525;-77
2022/05/16 19:18:24;;;;;;;4.53;2.27;;;;;;;21.69;56.85;98151.81;8458382;28;20228;-75
2022/05/16 19:22:27;;;;;;;8.93;2.50;;;;;;;21.65;57.80;98148.63;8464682;28;20244;-76
2022/05/16 19:26:32;;;;;;;7.07;2.67;;;;;;;21.56;58.63;98157.31;8464383;28;20228;-75
2022/05/16 19:35:00;;;;;;;6.00;2.90;;;;;;;21.43;58.98;98154.03;8466785;28;20225;-76
2022/05/16 19:39:04;;;;;;;8.77;2.63;;;;;;;21.40;58.91;98154.28;8464138;28;20229;-76
2022/05/16 19:43:07;;;;;;;9.60;3.00;;;;;;;21.40;59.42;98156.94;8464284;28;20225;-76
2022/05/16 19:47:11;;;;;;;6.27;2.90;;;;;;;21.33;58.66;98163.72;8467990;28;20311;-76
2022/05/16 19:51:20;;;;;;;6.00;2.83;;;;;;;21.39;58.38;98168.44;8463693;28;20232;-76
2022/05/16 19:55:25;;;;;;;7.47;3.20;;;;;;;21.37;58.39;98173.00;8463410;28;20221;-76
2022/05/16 19:59:31;;;;;;;8.83;3.17;;;;;;;21.27;58.21;98179.06;8465969;28;20513;-77
2022/05/16 20:03:34;;;;;;;5.83;2.60;;;;;;;21.25;58.42;98177.53;8461208;28;20398;-75
2022/05/16 20:07:38;;;;;;;6.97;2.90;;;;;;;21.20;58.42;98177.91;8463344;28;20222;-77
2022/05/16 20:11:43;;;;;;;4.17;2.40;;;;;;;21.18;58.18;98181.66;8463097;28;22267;-77
2022/05/16 20:15:48;;;;;;;6.63;2.50;;;;;;;21.09;58.32;98185.88;8463322;28;20229;-76
2022/05/16 20:19:51;;;;;;;7.73;2.60;;;;;;;21.11;58.66;98191.84;8463137;28;20236;-76
2022/05/16 20:28:31;;;;;;;9.87;3.07;;;;;;;21.12;58.39;98187.44;8436346;28;20238;-76
2022/05/16 20:32:34;;;;;;;13.83;3.13;;;;;;;21.09;58.31;98194.63;8427130;28;20225;-76
2022/05/16 20:36:38;;;;;;;8.97;3.17;;;;;;;21.06;58.57;98194.03;8428812;28;20252;-76